sensor_id;sensor_type;location;lat;lon;timestamp;P1;durP1;ratioP1;P2;durP2;ratioP2
61200;SDS011;47065;52.898;6.992;2022-10-31T00:00:58;24.15;;;11.13;;
61200;SDS011;47065;52.898;6.992;2022-10-31T00:03:24;20.10;;;11.48;;
61200;SDS011;47065;52.898;6.992;2022-10-31T00:05:51;21.55;;;12.50;;
61200;SDS011;47065;52.898;6.992;2022-10-31T00:08:17;22.48;;;11.55;;
61200;SDS011;47065;52.898;6.992;2022-10-31T00:10:44;27.77;;;13.60;;
61200;SDS011;47065;52.898;6.992;2022-10-31T00:13:11;25.75;;;12.35;;
61200;SDS011;47065;52.898;6.992;2022-10-31T00:15:38;28.60;;;12.13;;
61200;SDS011;47065;52.898;6.992;2022-10-31T00:18:05;23.50;;;11.80;;
61200;SDS011;47065;52.898;6.992;2022-10-31T00:20:32;20.33;;;11.95;;
61200;SDS011;47065;52.898;6.992;2022-10-31T00:23:01;25.20;;;11.88;;
61200;SDS011;47065;52.898;6.992;2022-10-31T00:25:27;23.73;;;12.77;;
61200;SDS011;47065;52.898;6.992;2022-10-31T00:27:54;22.45;;;12.57;;
61200;SDS011;47065;52.898;6.992;2022-10-31T00:30:20;24.17;;;12.73;;
61200;SDS011;47065;52.898;6.992;2022-10-31T00:32:45;24.48;;;13.60;;
61200;SDS011;47065;52.898;6.992;2022-10-31T00:35:11;19.45;;;12.10;;
61200;SDS011;47065;52.898;6.992;2022-10-31T00:37:36;27.60;;;14.30;;
61200;SDS011;47065;52.898;6.992;2022-10-31T00:40:02;24.20;;;13.55;;
61200;SDS011;47065;52.898;6.992;2022-10-31T00:42:28;19.25;;;13.57;;
61200;SDS011;47065;52.898;6.992;2022-10-31T00:44:53;32.33;;;15.77;;
61200;SDS011;47065;52.898;6.992;2022-10-31T00:47:19;31.52;;;16.38;;
61200;SDS011;47065;52.898;6.992;2022-10-31T00:49:44;32.78;;;15.63;;
61200;SDS011;47065;52.898;6.992;2022-10-31T00:52:10;26.60;;;16.60;;
61200;SDS011;47065;52.898;6.992;2022-10-31T00:54:36;31.35;;;16.85;;
61200;SDS011;47065;52.898;6.992;2022-10-31T00:57:01;33.78;;;16.65;;
61200;SDS011;47065;52.898;6.992;2022-10-31T00:59:27;22.58;;;13.02;;
61200;SDS011;47065;52.898;6.992;2022-10-31T01:01:53;29.40;;;13.02;;
61200;SDS011;47065;52.898;6.992;2022-10-31T01:04:18;24.38;;;12.77;;
61200;SDS011;47065;52.898;6.992;2022-10-31T01:06:44;20.15;;;12.05;;
61200;SDS011;47065;52.898;6.992;2022-10-31T01:09:09;23.85;;;13.32;;
61200;SDS011;47065;52.898;6.992;2022-10-31T01:11:35;23.98;;;13.80;;
61200;SDS011;47065;52.898;6.992;2022-10-31T01:14:01;26.13;;;15.65;;
61200;SDS011;47065;52.898;6.992;2022-10-31T01:16:27;30.67;;;15.38;;
61200;SDS011;47065;52.898;6.992;2022-10-31T01:18:54;30.00;;;15.45;;
61200;SDS011;47065;52.898;6.992;2022-10-31T01:21:21;31.45;;;15.70;;
61200;SDS011;47065;52.898;6.992;2022-10-31T01:23:48;35.55;;;17.55;;
61200;SDS011;47065;52.898;6.992;2022-10-31T01:26:19;34.40;;;17.25;;
61200;SDS011;47065;52.898;6.992;2022-10-31T01:28:47;39.35;;;18.35;;
61200;SDS011;47065;52.898;6.992;2022-10-31T01:31:14;35.97;;;18.50;;
61200;SDS011;47065;52.898;6.992;2022-10-31T01:33:41;38.70;;;20.27;;
61200;SDS011;47065;52.898;6.992;2022-10-31T01:36:14;36.05;;;19.05;;
61200;SDS011;47065;52.898;6.992;2022-10-31T01:38:42;36.28;;;20.45;;
61200;SDS011;47065;52.898;6.992;2022-10-31T01:41:09;39.10;;;20.42;;
61200;SDS011;47065;52.898;6.992;2022-10-31T01:43:45;38.80;;;18.67;;
61200;SDS011;47065;52.898;6.992;2022-10-31T01:46:15;41.20;;;19.23;;
61200;SDS011;47065;52.898;6.992;2022-10-31T01:48:54;33.35;;;18.73;;
61200;SDS011;47065;52.898;6.992;2022-10-31T01:51:23;34.08;;;19.60;;
61200;SDS011;47065;52.898;6.992;2022-10-31T01:53:53;31.65;;;18.92;;
61200;SDS011;47065;52.898;6.992;2022-10-31T01:56:23;37.33;;;19.77;;
61200;SDS011;47065;52.898;6.992;2022-10-31T01:58:48;36.03;;;17.90;;
61200;SDS011;47065;52.898;6.992;2022-10-31T02:01:14;40.53;;;20.75;;
61200;SDS011;47065;52.898;6.992;2022-10-31T02:03:41;32.17;;;19.27;;
61200;SDS011;47065;52.898;6.992;2022-10-31T02:06:09;31.00;;;19.42;;
61200;SDS011;47065;52.898;6.992;2022-10-31T02:08:40;37.50;;;19.88;;
61200;SDS011;47065;52.898;6.992;2022-10-31T02:11:07;35.88;;;18.98;;
61200;SDS011;47065;52.898;6.992;2022-10-31T02:13:34;30.25;;;17.98;;
61200;SDS011;47065;52.898;6.992;2022-10-31T02:15:59;34.65;;;18.38;;
61200;SDS011;47065;52.898;6.992;2022-10-31T02:18:26;32.17;;;17.70;;
61200;SDS011;47065;52.898;6.992;2022-10-31T02:35:07;23.77;;;13.90;;
61200;SDS011;47065;52.898;6.992;2022-10-31T02:42:51;18.70;;;11.63;;
61200;SDS011;47065;52.898;6.992;2022-10-31T02:47:56;21.85;;;12.68;;
61200;SDS011;47065;52.898;6.992;2022-10-31T02:50:30;31.17;;;16.52;;
61200;SDS011;47065;52.898;6.992;2022-10-31T02:52:57;29.52;;;16.80;;
61200;SDS011;47065;52.898;6.992;2022-10-31T02:57:53;36.28;;;18.45;;
61200;SDS011;47065;52.898;6.992;2022-10-31T03:00:25;25.60;;;16.00;;
61200;SDS011;47065;52.898;6.992;2022-10-31T03:15:50;39.28;;;18.48;;
61200;SDS011;47065;52.898;6.992;2022-10-31T03:18:37;31.92;;;16.33;;
61200;SDS011;47065;52.898;6.992;2022-10-31T03:21:12;37.25;;;20.67;;
61200;SDS011;47065;52.898;6.992;2022-10-31T03:23:41;38.05;;;19.05;;
61200;SDS011;47065;52.898;6.992;2022-10-31T03:26:10;37.67;;;19.52;;
61200;SDS011;47065;52.898;6.992;2022-10-31T03:29:01;29.55;;;18.08;;
61200;SDS011;47065;52.898;6.992;2022-10-31T03:31:29;39.75;;;18.98;;
61200;SDS011;47065;52.898;6.992;2022-10-31T03:33:58;26.30;;;13.13;;
61200;SDS011;47065;52.898;6.992;2022-10-31T03:36:25;30.45;;;17.30;;
61200;SDS011;47065;52.898;6.992;2022-10-31T03:38:53;30.77;;;16.50;;
61200;SDS011;47065;52.898;6.992;2022-10-31T03:41:21;31.40;;;18.90;;
61200;SDS011;47065;52.898;6.992;2022-10-31T03:44:01;31.73;;;17.98;;
61200;SDS011;47065;52.898;6.992;2022-10-31T03:46:31;29.17;;;17.40;;
61200;SDS011;47065;52.898;6.992;2022-10-31T03:48:57;30.05;;;16.35;;
61200;SDS011;47065;52.898;6.992;2022-10-31T03:51:40;37.47;;;19.50;;
61200;SDS011;47065;52.898;6.992;2022-10-31T03:54:31;38.25;;;19.92;;
61200;SDS011;47065;52.898;6.992;2022-10-31T03:57:29;38.25;;;17.65;;
61200;SDS011;47065;52.898;6.992;2022-10-31T04:00:11;32.22;;;18.75;;
61200;SDS011;47065;52.898;6.992;2022-10-31T04:02:39;34.95;;;19.17;;
61200;SDS011;47065;52.898;6.992;2022-10-31T04:05:08;36.47;;;19.88;;
61200;SDS011;47065;52.898;6.992;2022-10-31T04:07:39;28.55;;;16.73;;
61200;SDS011;47065;52.898;6.992;2022-10-31T04:10:09;36.65;;;18.15;;
61200;SDS011;47065;52.898;6.992;2022-10-31T04:12:37;30.15;;;16.27;;
61200;SDS011;47065;52.898;6.992;2022-10-31T04:15:04;32.15;;;15.23;;
61200;SDS011;47065;52.898;6.992;2022-10-31T04:17:33;199.80;;;23.65;;
61200;SDS011;47065;52.898;6.992;2022-10-31T04:20:01;147.65;;;23.17;;
61200;SDS011;47065;52.898;6.992;2022-10-31T04:22:27;402.33;;;41.50;;
61200;SDS011;47065;52.898;6.992;2022-10-31T04:24:53;140.70;;;21.30;;
61200;SDS011;47065;52.898;6.992;2022-10-31T04:27:19;59.17;;;14.63;;
61200;SDS011;47065;52.898;6.992;2022-10-31T04:29:44;145.30;;;20.48;;
61200;SDS011;47065;52.898;6.992;2022-10-31T04:32:10;42.40;;;12.48;;
61200;SDS011;47065;52.898;6.992;2022-10-31T04:34:35;42.85;;;13.30;;
61200;SDS011;47065;52.898;6.992;2022-10-31T04:37:01;45.92;;;12.13;;
61200;SDS011;47065;52.898;6.992;2022-10-31T04:39:27;141.70;;;17.15;;
61200;SDS011;47065;52.898;6.992;2022-10-31T04:41:52;77.00;;;13.52;;
61200;SDS011;47065;52.898;6.992;2022-10-31T04:44:18;26.08;;;10.18;;
61200;SDS011;47065;52.898;6.992;2022-10-31T04:46:43;46.00;;;12.93;;
61200;SDS011;47065;52.898;6.992;2022-10-31T04:49:09;21.70;;;12.27;;
61200;SDS011;47065;52.898;6.992;2022-10-31T04:51:34;28.55;;;12.32;;
61200;SDS011;47065;52.898;6.992;2022-10-31T04:54:00;22.00;;;15.43;;
61200;SDS011;47065;52.898;6.992;2022-10-31T04:56:26;53.17;;;15.93;;
61200;SDS011;47065;52.898;6.992;2022-10-31T04:58:52;168.48;;;23.17;;
61200;SDS011;47065;52.898;6.992;2022-10-31T05:01:17;159.50;;;21.17;;
61200;SDS011;47065;52.898;6.992;2022-10-31T05:03:43;131.52;;;17.83;;
61200;SDS011;47065;52.898;6.992;2022-10-31T05:06:09;96.10;;;15.90;;
61200;SDS011;47065;52.898;6.992;2022-10-31T05:08:34;259.65;;;29.95;;
61200;SDS011;47065;52.898;6.992;2022-10-31T05:11:00;73.25;;;16.30;;
61200;SDS011;47065;52.898;6.992;2022-10-31T05:13:27;79.72;;;16.33;;
61200;SDS011;47065;52.898;6.992;2022-10-31T05:15:52;128.93;;;21.42;;
61200;SDS011;47065;52.898;6.992;2022-10-31T05:18:18;52.88;;;14.73;;
61200;SDS011;47065;52.898;6.992;2022-10-31T05:20:43;97.80;;;19.48;;
61200;SDS011;47065;52.898;6.992;2022-10-31T05:23:09;70.95;;;16.23;;
61200;SDS011;47065;52.898;6.992;2022-10-31T05:25:35;144.55;;;17.77;;
61200;SDS011;47065;52.898;6.992;2022-10-31T05:28:00;124.93;;;18.90;;
61200;SDS011;47065;52.898;6.992;2022-10-31T05:30:27;99.95;;;17.70;;
61200;SDS011;47065;52.898;6.992;2022-10-31T05:32:54;258.67;;;28.17;;
61200;SDS011;47065;52.898;6.992;2022-10-31T05:35:21;241.60;;;27.17;;
61200;SDS011;47065;52.898;6.992;2022-10-31T05:37:55;141.75;;;18.15;;
61200;SDS011;47065;52.898;6.992;2022-10-31T05:40:22;158.02;;;21.08;;
61200;SDS011;47065;52.898;6.992;2022-10-31T05:42:50;129.25;;;20.92;;
61200;SDS011;47065;52.898;6.992;2022-10-31T05:45:17;112.47;;;22.52;;
61200;SDS011;47065;52.898;6.992;2022-10-31T05:48:17;218.23;;;29.65;;
61200;SDS011;47065;52.898;6.992;2022-10-31T05:50:36;117.13;;;23.85;;
61200;SDS011;47065;52.898;6.992;2022-10-31T05:53:02;107.55;;;23.42;;
61200;SDS011;47065;52.898;6.992;2022-10-31T05:55:29;145.00;;;25.70;;
61200;SDS011;47065;52.898;6.992;2022-10-31T05:57:56;156.13;;;27.38;;
61200;SDS011;47065;52.898;6.992;2022-10-31T06:00:23;85.72;;;21.60;;
61200;SDS011;47065;52.898;6.992;2022-10-31T06:02:57;88.38;;;22.67;;
61200;SDS011;47065;52.898;6.992;2022-10-31T06:05:23;59.30;;;20.70;;
61200;SDS011;47065;52.898;6.992;2022-10-31T06:07:49;79.93;;;19.65;;
61200;SDS011;47065;52.898;6.992;2022-10-31T06:10:15;94.25;;;21.38;;
61200;SDS011;47065;52.898;6.992;2022-10-31T06:12:40;79.88;;;20.85;;
61200;SDS011;47065;52.898;6.992;2022-10-31T06:15:07;64.85;;;21.38;;
61200;SDS011;47065;52.898;6.992;2022-10-31T06:17:34;52.53;;;19.88;;
61200;SDS011;47065;52.898;6.992;2022-10-31T06:19:59;55.97;;;21.30;;
61200;SDS011;47065;52.898;6.992;2022-10-31T06:22:25;75.05;;;23.30;;
61200;SDS011;47065;52.898;6.992;2022-10-31T06:24:51;93.38;;;24.88;;
61200;SDS011;47065;52.898;6.992;2022-10-31T06:27:17;78.80;;;22.95;;
61200;SDS011;47065;52.898;6.992;2022-10-31T06:29:42;87.72;;;27.00;;
61200;SDS011;47065;52.898;6.992;2022-10-31T06:32:11;42.95;;;20.35;;
61200;SDS011;47065;52.898;6.992;2022-10-31T06:34:37;82.93;;;23.95;;
61200;SDS011;47065;52.898;6.992;2022-10-31T06:37:05;62.45;;;24.85;;
61200;SDS011;47065;52.898;6.992;2022-10-31T06:39:32;91.35;;;26.77;;
61200;SDS011;47065;52.898;6.992;2022-10-31T06:41:57;68.47;;;27.35;;
61200;SDS011;47065;52.898;6.992;2022-10-31T06:44:24;56.30;;;25.35;;
61200;SDS011;47065;52.898;6.992;2022-10-31T06:46:49;57.30;;;26.75;;
61200;SDS011;47065;52.898;6.992;2022-10-31T06:49:15;158.50;;;33.88;;
61200;SDS011;47065;52.898;6.992;2022-10-31T06:51:41;122.47;;;27.17;;
61200;SDS011;47065;52.898;6.992;2022-10-31T06:54:07;136.23;;;26.98;;
61200;SDS011;47065;52.898;6.992;2022-10-31T06:56:32;190.63;;;35.92;;
61200;SDS011;47065;52.898;6.992;2022-10-31T06:58:58;260.20;;;39.85;;
61200;SDS011;47065;52.898;6.992;2022-10-31T07:01:23;227.50;;;35.00;;
61200;SDS011;47065;52.898;6.992;2022-10-31T07:03:49;103.20;;;23.10;;
61200;SDS011;47065;52.898;6.992;2022-10-31T07:06:15;175.32;;;30.73;;
61200;SDS011;47065;52.898;6.992;2022-10-31T07:08:40;108.30;;;23.15;;
61200;SDS011;47065;52.898;6.992;2022-10-31T07:11:06;241.18;;;35.35;;
61200;SDS011;47065;52.898;6.992;2022-10-31T07:13:31;245.25;;;34.60;;
61200;SDS011;47065;52.898;6.992;2022-10-31T07:16:01;172.32;;;28.98;;
61200;SDS011;47065;52.898;6.992;2022-10-31T07:18:29;113.03;;;28.30;;
61200;SDS011;47065;52.898;6.992;2022-10-31T07:20:54;103.03;;;28.60;;
61200;SDS011;47065;52.898;6.992;2022-10-31T07:23:20;93.43;;;27.40;;
61200;SDS011;47065;52.898;6.992;2022-10-31T07:25:47;45.40;;;22.13;;
61200;SDS011;47065;52.898;6.992;2022-10-31T07:28:12;74.65;;;27.48;;
61200;SDS011;47065;52.898;6.992;2022-10-31T07:30:38;71.38;;;26.80;;
61200;SDS011;47065;52.898;6.992;2022-10-31T07:33:04;80.18;;;27.98;;
61200;SDS011;47065;52.898;6.992;2022-10-31T07:35:30;100.78;;;27.33;;
61200;SDS011;47065;52.898;6.992;2022-10-31T07:37:56;170.80;;;36.47;;
61200;SDS011;47065;52.898;6.992;2022-10-31T07:40:23;100.50;;;29.95;;
61200;SDS011;47065;52.898;6.992;2022-10-31T07:42:50;168.63;;;35.90;;
61200;SDS011;47065;52.898;6.992;2022-10-31T07:45:18;107.75;;;29.65;;
61200;SDS011;47065;52.898;6.992;2022-10-31T07:47:46;56.65;;;27.52;;
61200;SDS011;47065;52.898;6.992;2022-10-31T07:50:20;109.53;;;35.47;;
61200;SDS011;47065;52.898;6.992;2022-10-31T07:53:00;106.78;;;31.83;;
61200;SDS011;47065;52.898;6.992;2022-10-31T07:55:27;92.53;;;29.67;;
61200;SDS011;47065;52.898;6.992;2022-10-31T07:58:00;77.47;;;28.60;;
61200;SDS011;47065;52.898;6.992;2022-10-31T08:00:28;70.60;;;27.55;;
61200;SDS011;47065;52.898;6.992;2022-10-31T08:02:58;62.70;;;30.05;;
61200;SDS011;47065;52.898;6.992;2022-10-31T08:05:28;73.50;;;28.83;;
61200;SDS011;47065;52.898;6.992;2022-10-31T08:07:55;78.97;;;31.05;;
61200;SDS011;47065;52.898;6.992;2022-10-31T08:10:20;97.03;;;30.63;;
61200;SDS011;47065;52.898;6.992;2022-10-31T08:12:46;69.68;;;30.45;;
61200;SDS011;47065;52.898;6.992;2022-10-31T08:15:12;74.65;;;29.85;;
61200;SDS011;47065;52.898;6.992;2022-10-31T08:17:38;66.45;;;30.30;;
61200;SDS011;47065;52.898;6.992;2022-10-31T08:20:04;68.93;;;31.85;;
61200;SDS011;47065;52.898;6.992;2022-10-31T08:22:30;75.50;;;32.90;;
61200;SDS011;47065;52.898;6.992;2022-10-31T08:24:56;76.50;;;34.03;;
61200;SDS011;47065;52.898;6.992;2022-10-31T08:27:22;68.03;;;31.73;;
61200;SDS011;47065;52.898;6.992;2022-10-31T08:29:48;56.15;;;29.30;;
61200;SDS011;47065;52.898;6.992;2022-10-31T08:32:13;57.90;;;30.83;;
61200;SDS011;47065;52.898;6.992;2022-10-31T08:34:39;80.40;;;30.55;;
61200;SDS011;47065;52.898;6.992;2022-10-31T08:37:05;50.38;;;30.60;;
61200;SDS011;47065;52.898;6.992;2022-10-31T08:39:30;56.20;;;30.02;;
61200;SDS011;47065;52.898;6.992;2022-10-31T08:41:56;61.63;;;33.15;;
61200;SDS011;47065;52.898;6.992;2022-10-31T08:44:21;47.58;;;30.48;;
61200;SDS011;47065;52.898;6.992;2022-10-31T08:46:47;52.40;;;28.08;;
61200;SDS011;47065;52.898;6.992;2022-10-31T08:49:12;46.67;;;27.77;;
61200;SDS011;47065;52.898;6.992;2022-10-31T08:51:38;41.85;;;27.10;;
61200;SDS011;47065;52.898;6.992;2022-10-31T08:54:04;56.97;;;32.20;;
61200;SDS011;47065;52.898;6.992;2022-10-31T08:56:29;36.78;;;24.48;;
61200;SDS011;47065;52.898;6.992;2022-10-31T08:58:55;35.70;;;23.50;;
61200;SDS011;47065;52.898;6.992;2022-10-31T09:01:21;39.38;;;25.65;;
61200;SDS011;47065;52.898;6.992;2022-10-31T09:03:46;28.73;;;20.30;;
61200;SDS011;47065;52.898;6.992;2022-10-31T09:06:12;27.75;;;20.20;;
61200;SDS011;47065;52.898;6.992;2022-10-31T09:08:38;26.45;;;19.67;;
61200;SDS011;47065;52.898;6.992;2022-10-31T09:11:03;23.55;;;19.10;;
61200;SDS011;47065;52.898;6.992;2022-10-31T09:13:31;27.98;;;19.45;;
61200;SDS011;47065;52.898;6.992;2022-10-31T09:15:57;28.98;;;18.30;;
61200;SDS011;47065;52.898;6.992;2022-10-31T09:18:24;24.58;;;17.80;;
61200;SDS011;47065;52.898;6.992;2022-10-31T09:20:52;22.55;;;15.90;;
61200;SDS011;47065;52.898;6.992;2022-10-31T09:23:19;19.45;;;17.33;;
61200;SDS011;47065;52.898;6.992;2022-10-31T09:25:47;21.20;;;16.55;;
61200;SDS011;47065;52.898;6.992;2022-10-31T09:28:15;24.40;;;17.45;;
61200;SDS011;47065;52.898;6.992;2022-10-31T09:30:42;27.13;;;18.38;;
61200;SDS011;47065;52.898;6.992;2022-10-31T09:33:11;24.67;;;17.10;;
61200;SDS011;47065;52.898;6.992;2022-10-31T09:35:38;24.45;;;16.55;;
61200;SDS011;47065;52.898;6.992;2022-10-31T09:38:05;31.42;;;17.95;;
61200;SDS011;47065;52.898;6.992;2022-10-31T09:40:35;23.58;;;16.75;;
61200;SDS011;47065;52.898;6.992;2022-10-31T09:51:51;24.92;;;17.88;;
61200;SDS011;47065;52.898;6.992;2022-10-31T09:57:25;30.52;;;20.50;;
61200;SDS011;47065;52.898;6.992;2022-10-31T09:59:54;27.90;;;18.48;;
61200;SDS011;47065;52.898;6.992;2022-10-31T10:02:28;24.95;;;17.70;;
61200;SDS011;47065;52.898;6.992;2022-10-31T10:05:00;29.30;;;19.23;;
61200;SDS011;47065;52.898;6.992;2022-10-31T10:10:13;31.05;;;19.63;;
61200;SDS011;47065;52.898;6.992;2022-10-31T10:15:51;31.10;;;20.10;;
61200;SDS011;47065;52.898;6.992;2022-10-31T10:26:37;31.33;;;18.73;;
61200;SDS011;47065;52.898;6.992;2022-10-31T10:29:21;29.80;;;19.63;;
61200;SDS011;47065;52.898;6.992;2022-10-31T10:32:05;24.48;;;18.35;;
61200;SDS011;47065;52.898;6.992;2022-10-31T10:34:53;28.58;;;17.63;;
61200;SDS011;47065;52.898;6.992;2022-10-31T10:42:33;23.52;;;16.15;;
61200;SDS011;47065;52.898;6.992;2022-10-31T10:45:35;27.98;;;17.42;;
61200;SDS011;47065;52.898;6.992;2022-10-31T10:51:33;24.88;;;15.73;;
61200;SDS011;47065;52.898;6.992;2022-10-31T10:59:46;22.13;;;15.63;;
61200;SDS011;47065;52.898;6.992;2022-10-31T11:02:22;25.83;;;16.80;;
61200;SDS011;47065;52.898;6.992;2022-10-31T11:04:50;23.98;;;16.63;;
61200;SDS011;47065;52.898;6.992;2022-10-31T11:07:21;22.63;;;15.40;;
61200;SDS011;47065;52.898;6.992;2022-10-31T11:09:47;25.80;;;15.95;;
61200;SDS011;47065;52.898;6.992;2022-10-31T11:12:21;30.08;;;17.90;;
61200;SDS011;47065;52.898;6.992;2022-10-31T11:15:02;28.23;;;16.98;;
61200;SDS011;47065;52.898;6.992;2022-10-31T11:17:34;25.75;;;16.20;;
61200;SDS011;47065;52.898;6.992;2022-10-31T11:22:41;26.70;;;16.88;;
61200;SDS011;47065;52.898;6.992;2022-10-31T11:30:27;22.90;;;14.20;;
61200;SDS011;47065;52.898;6.992;2022-10-31T11:32:54;24.50;;;16.55;;
61200;SDS011;47065;52.898;6.992;2022-10-31T11:35:21;24.13;;;15.80;;
61200;SDS011;47065;52.898;6.992;2022-10-31T11:37:49;25.52;;;15.80;;
61200;SDS011;47065;52.898;6.992;2022-10-31T11:40:22;25.23;;;15.25;;
61200;SDS011;47065;52.898;6.992;2022-10-31T11:42:51;27.20;;;18.00;;
61200;SDS011;47065;52.898;6.992;2022-10-31T11:47:50;26.27;;;17.35;;
61200;SDS011;47065;52.898;6.992;2022-10-31T11:50:22;26.40;;;17.17;;
61200;SDS011;47065;52.898;6.992;2022-10-31T11:52:51;25.95;;;16.65;;
61200;SDS011;47065;52.898;6.992;2022-10-31T11:55:31;32.05;;;17.80;;
61200;SDS011;47065;52.898;6.992;2022-10-31T11:57:57;28.30;;;16.90;;
61200;SDS011;47065;52.898;6.992;2022-10-31T12:06:14;26.80;;;15.27;;
61200;SDS011;47065;52.898;6.992;2022-10-31T12:08:45;24.42;;;14.88;;
61200;SDS011;47065;52.898;6.992;2022-10-31T12:25:37;28.00;;;15.50;;
61200;SDS011;47065;52.898;6.992;2022-10-31T12:44:57;20.48;;;11.23;;
61200;SDS011;47065;52.898;6.992;2022-10-31T12:47:38;15.80;;;8.88;;
61200;SDS011;47065;52.898;6.992;2022-10-31T13:00:44;18.55;;;8.18;;
61200;SDS011;47065;52.898;6.992;2022-10-31T13:03:26;12.30;;;8.45;;
61200;SDS011;47065;52.898;6.992;2022-10-31T13:05:59;20.70;;;10.57;;
61200;SDS011;47065;52.898;6.992;2022-10-31T13:08:34;11.77;;;8.07;;
61200;SDS011;47065;52.898;6.992;2022-10-31T13:16:37;13.15;;;6.93;;
61200;SDS011;47065;52.898;6.992;2022-10-31T13:19:10;13.50;;;6.70;;
61200;SDS011;47065;52.898;6.992;2022-10-31T13:21:45;9.20;;;6.40;;
61200;SDS011;47065;52.898;6.992;2022-10-31T13:24:28;13.23;;;5.68;;
61200;SDS011;47065;52.898;6.992;2022-10-31T13:27:02;11.48;;;5.70;;
61200;SDS011;47065;52.898;6.992;2022-10-31T13:29:39;10.48;;;4.93;;
61200;SDS011;47065;52.898;6.992;2022-10-31T13:32:12;16.05;;;4.97;;
61200;SDS011;47065;52.898;6.992;2022-10-31T13:34:42;7.25;;;4.00;;
61200;SDS011;47065;52.898;6.992;2022-10-31T13:37:35;8.55;;;4.10;;
61200;SDS011;47065;52.898;6.992;2022-10-31T13:40:20;8.15;;;3.45;;
61200;SDS011;47065;52.898;6.992;2022-10-31T13:45:49;6.25;;;3.40;;
61200;SDS011;47065;52.898;6.992;2022-10-31T13:48:28;7.15;;;3.22;;
61200;SDS011;47065;52.898;6.992;2022-10-31T13:51:10;6.05;;;3.25;;
61200;SDS011;47065;52.898;6.992;2022-10-31T13:53:40;5.15;;;4.05;;
61200;SDS011;47065;52.898;6.992;2022-10-31T13:56:25;8.35;;;3.15;;
61200;SDS011;47065;52.898;6.992;2022-10-31T14:01:34;9.68;;;3.60;;
61200;SDS011;47065;52.898;6.992;2022-10-31T14:04:04;7.85;;;3.13;;
61200;SDS011;47065;52.898;6.992;2022-10-31T14:06:40;7.32;;;3.22;;
61200;SDS011;47065;52.898;6.992;2022-10-31T14:09:50;7.82;;;3.70;;
61200;SDS011;47065;52.898;6.992;2022-10-31T14:12:03;5.13;;;3.25;;
61200;SDS011;47065;52.898;6.992;2022-10-31T14:14:51;7.50;;;3.60;;
61200;SDS011;47065;52.898;6.992;2022-10-31T14:17:28;5.90;;;3.58;;
61200;SDS011;47065;52.898;6.992;2022-10-31T14:19:59;10.98;;;4.78;;
61200;SDS011;47065;52.898;6.992;2022-10-31T14:22:31;9.80;;;4.28;;
61200;SDS011;47065;52.898;6.992;2022-10-31T14:24:58;6.78;;;3.72;;
61200;SDS011;47065;52.898;6.992;2022-10-31T14:29:53;6.15;;;3.35;;
61200;SDS011;47065;52.898;6.992;2022-10-31T14:32:22;8.93;;;4.35;;
61200;SDS011;47065;52.898;6.992;2022-10-31T14:40:02;8.57;;;4.32;;
61200;SDS011;47065;52.898;6.992;2022-10-31T14:50:54;13.50;;;6.60;;
61200;SDS011;47065;52.898;6.992;2022-10-31T14:53:28;9.98;;;6.28;;
61200;SDS011;47065;52.898;6.992;2022-10-31T14:55:56;7.45;;;5.43;;
61200;SDS011;47065;52.898;6.992;2022-10-31T14:58:31;12.88;;;6.07;;
61200;SDS011;47065;52.898;6.992;2022-10-31T15:01:27;11.13;;;5.32;;
61200;SDS011;47065;52.898;6.992;2022-10-31T15:04:00;8.38;;;6.47;;
61200;SDS011;47065;52.898;6.992;2022-10-31T15:06:31;9.75;;;6.25;;
61200;SDS011;47065;52.898;6.992;2022-10-31T15:09:24;7.68;;;6.38;;
61200;SDS011;47065;52.898;6.992;2022-10-31T15:11:53;10.07;;;6.03;;
61200;SDS011;47065;52.898;6.992;2022-10-31T15:14:21;12.30;;;6.55;;
61200;SDS011;47065;52.898;6.992;2022-10-31T15:16:52;11.18;;;6.28;;
61200;SDS011;47065;52.898;6.992;2022-10-31T15:19:20;8.43;;;5.95;;
61200;SDS011;47065;52.898;6.992;2022-10-31T15:21:49;10.82;;;6.88;;
61200;SDS011;47065;52.898;6.992;2022-10-31T15:24:16;11.30;;;7.53;;
61200;SDS011;47065;52.898;6.992;2022-10-31T15:26:44;9.82;;;6.95;;
61200;SDS011;47065;52.898;6.992;2022-10-31T15:31:49;14.68;;;7.38;;
61200;SDS011;47065;52.898;6.992;2022-10-31T15:34:17;11.40;;;8.13;;
61200;SDS011;47065;52.898;6.992;2022-10-31T15:36:52;12.57;;;8.13;;
61200;SDS011;47065;52.898;6.992;2022-10-31T15:39:18;15.10;;;9.27;;
61200;SDS011;47065;52.898;6.992;2022-10-31T15:41:54;13.43;;;8.95;;
61200;SDS011;47065;52.898;6.992;2022-10-31T15:44:24;12.93;;;8.05;;
61200;SDS011;47065;52.898;6.992;2022-10-31T15:49:54;14.13;;;9.68;;
61200;SDS011;47065;52.898;6.992;2022-10-31T15:52:32;15.68;;;9.77;;
61200;SDS011;47065;52.898;6.992;2022-10-31T15:55:04;14.25;;;8.73;;
61200;SDS011;47065;52.898;6.992;2022-10-31T15:57:54;15.02;;;9.57;;
61200;SDS011;47065;52.898;6.992;2022-10-31T16:00:27;16.23;;;9.88;;
61200;SDS011;47065;52.898;6.992;2022-10-31T16:05:44;21.42;;;11.45;;
61200;SDS011;47065;52.898;6.992;2022-10-31T16:10:56;19.48;;;12.90;;
61200;SDS011;47065;52.898;6.992;2022-10-31T16:13:25;17.13;;;12.77;;
61200;SDS011;47065;52.898;6.992;2022-10-31T16:16:03;21.33;;;13.40;;
61200;SDS011;47065;52.898;6.992;2022-10-31T16:18:36;21.25;;;14.45;;
61200;SDS011;47065;52.898;6.992;2022-10-31T16:21:04;20.88;;;13.70;;
61200;SDS011;47065;52.898;6.992;2022-10-31T16:23:32;18.65;;;12.00;;
61200;SDS011;47065;52.898;6.992;2022-10-31T16:25:58;22.10;;;14.13;;
61200;SDS011;47065;52.898;6.992;2022-10-31T16:28:24;23.50;;;15.90;;
61200;SDS011;47065;52.898;6.992;2022-10-31T16:30:52;24.92;;;17.27;;
61200;SDS011;47065;52.898;6.992;2022-10-31T16:33:29;26.58;;;14.65;;
61200;SDS011;47065;52.898;6.992;2022-10-31T16:36:28;28.77;;;18.20;;
61200;SDS011;47065;52.898;6.992;2022-10-31T16:38:53;30.63;;;17.80;;
61200;SDS011;47065;52.898;6.992;2022-10-31T16:41:19;32.17;;;18.95;;
61200;SDS011;47065;52.898;6.992;2022-10-31T16:43:45;34.90;;;20.58;;
61200;SDS011;47065;52.898;6.992;2022-10-31T16:46:15;33.33;;;20.77;;
61200;SDS011;47065;52.898;6.992;2022-10-31T16:48:50;30.35;;;19.27;;
61200;SDS011;47065;52.898;6.992;2022-10-31T16:51:15;28.00;;;18.67;;
61200;SDS011;47065;52.898;6.992;2022-10-31T16:53:41;35.15;;;22.50;;
61200;SDS011;47065;52.898;6.992;2022-10-31T16:56:11;32.08;;;21.75;;
61200;SDS011;47065;52.898;6.992;2022-10-31T16:58:43;37.22;;;21.95;;
61200;SDS011;47065;52.898;6.992;2022-10-31T17:01:09;37.95;;;22.73;;
61200;SDS011;47065;52.898;6.992;2022-10-31T17:03:37;39.42;;;23.02;;
61200;SDS011;47065;52.898;6.992;2022-10-31T17:06:03;42.65;;;22.48;;
61200;SDS011;47065;52.898;6.992;2022-10-31T17:08:29;43.22;;;25.00;;
61200;SDS011;47065;52.898;6.992;2022-10-31T17:10:55;40.78;;;23.52;;
61200;SDS011;47065;52.898;6.992;2022-10-31T17:13:23;36.55;;;22.30;;
61200;SDS011;47065;52.898;6.992;2022-10-31T17:15:51;40.25;;;24.15;;
61200;SDS011;47065;52.898;6.992;2022-10-31T17:18:19;45.22;;;26.33;;
61200;SDS011;47065;52.898;6.992;2022-10-31T17:20:44;46.60;;;27.20;;
61200;SDS011;47065;52.898;6.992;2022-10-31T17:23:11;47.13;;;26.15;;
61200;SDS011;47065;52.898;6.992;2022-10-31T17:25:38;44.78;;;26.58;;
61200;SDS011;47065;52.898;6.992;2022-10-31T17:28:04;49.47;;;27.60;;
61200;SDS011;47065;52.898;6.992;2022-10-31T17:30:30;48.85;;;28.98;;